Kipnuk Airport


Codes: PAKI/KPN
Name: Kipnuk Airport
City: Kipnuk
Country: United States
Elevation: 11 ft.
Wikipedia:

Photos at Kipnuk Airport


   Photos courtesy of SpottingLog. You can add your own sightings and photos by signing up for a free trial today.



No photos found.

Weather at Kipnuk Airport


Time (UTC)DescriptionTempratureWindCloud coverageVisibilityPressureHumidity
25-Jun-2024 15:00Overcast Clouds10°C11 mph, SE96%10000m1011hPa79%
25-Jun-2024 18:00Overcast Clouds10°C20 mph, SE98%10000m1010hPa84%
25-Jun-2024 21:00Overcast Clouds14°C27 mph, SE89%10000m1008hPa73%
26-Jun-2024 00:00Overcast Clouds13°C29 mph, SE91%10000m1007hPa66%
26-Jun-2024 03:00Broken Clouds13°C29 mph, SE63%10000m1005hPa64%
26-Jun-2024 06:00Scattered Clouds12°C31 mph, SE45%10000m1004hPa72%
26-Jun-2024 09:00Overcast Clouds10°C34 mph, SE94%10000m1004hPa79%
26-Jun-2024 12:00Overcast Clouds10°C34 mph, SE97%10000m1003hPa80%
26-Jun-2024 15:00Light Rain10°C34 mph, SE100%10000m1001hPa84%
26-Jun-2024 18:00Light Rain10°C36 mph, SE100%10000m1001hPa87%
26-Jun-2024 21:00Light Rain10°C34 mph, SE100%10000m1002hPa88%
27-Jun-2024 00:00Light Rain10°C31 mph, SE100%10000m1002hPa89%
27-Jun-2024 03:00Light Rain9°C25 mph, SE100%10000m1002hPa92%
27-Jun-2024 06:00Light Rain9°C20 mph, SE100%10000m1002hPa91%
27-Jun-2024 09:00Overcast Clouds8°C20 mph, SE100%10000m1003hPa88%
27-Jun-2024 12:00Overcast Clouds8°C25 mph, SE100%10000m1003hPa86%
27-Jun-2024 15:00Light Rain8°C27 mph, SE97%10000m1003hPa88%
27-Jun-2024 18:00Light Rain8°C27 mph, SE99%10000m1003hPa89%
27-Jun-2024 21:00Light Rain8°C27 mph, SE100%10000m1004hPa89%
28-Jun-2024 00:00Light Rain8°C25 mph, SE100%10000m1004hPa92%
28-Jun-2024 03:00Light Rain8°C25 mph, SE100%10000m1004hPa92%
28-Jun-2024 06:00Light Rain8°C22 mph, SE100%10000m1005hPa90%
28-Jun-2024 09:00Light Rain8°C22 mph, SE100%10000m1006hPa92%
28-Jun-2024 12:00Light Rain8°C22 mph, S100%10000m1006hPa91%
28-Jun-2024 15:00Light Rain8°C22 mph, SE100%10000m1007hPa94%
28-Jun-2024 18:00Light Rain8°C22 mph, SE100%10000m1008hPa89%
28-Jun-2024 21:00Overcast Clouds9°C22 mph, SE100%10000m1009hPa79%
29-Jun-2024 00:00Overcast Clouds10°C22 mph, SE100%10000m1009hPa75%
29-Jun-2024 03:00Overcast Clouds10°C18 mph, S100%10000m1008hPa74%
29-Jun-2024 06:00Overcast Clouds9°C11 mph, SE100%10000m1008hPa77%
29-Jun-2024 09:00Overcast Clouds9°C7 mph, SE100%10000m1008hPa82%
29-Jun-2024 12:00Overcast Clouds8°C7 mph, SE100%10000m1008hPa80%
29-Jun-2024 15:00Overcast Clouds9°C7 mph, NE100%10000m1007hPa75%
29-Jun-2024 18:00Overcast Clouds11°C9 mph, E100%10000m1007hPa74%
29-Jun-2024 21:00Overcast Clouds12°C13 mph, SE99%10000m1007hPa70%
30-Jun-2024 00:00Overcast Clouds11°C13 mph, SE99%10000m1007hPa78%
30-Jun-2024 03:00Light Rain10°C7 mph, SW100%10000m1008hPa81%
30-Jun-2024 06:00Light Rain10°C0 mph, SE100%10000m1008hPa83%
30-Jun-2024 09:00Light Rain9°C2 mph, SE100%10000m1009hPa89%
30-Jun-2024 12:00Overcast Clouds9°C4 mph, SE100%10000m1009hPa92%